Platzwetter / Webcam

  • Aktuelles Bild
  • Verlauf
  • Verlauf
  • Verlauf
  • Verlauf
  • Verlauf
  • Verlauf
  • Verlauf
  • Verlauf
  • Verlauf
  • Verlauf
  • Verlauf
  • Verlauf
  • Verlauf
  • Verlauf
  • Verlauf
  • Verlauf
  • Verlauf

Flugwetter Linz

[Quelle: ADDS]
METAR
LOWL 241650Z VRB02KT CAVOK 15/01 Q1013 NOSIG =
TAF
LOWL 241115Z 2412/2512 09005KT CAVOK TX17/2512Z TN03/2503Z =

Flugwetter Salzburg

[Quelle: ADDS]
METAR
LOWS 241650Z VRB02KT CAVOK 16/03 Q1012 NOSIG =
TAF
LOWS 241115Z 2412/2512 05007KT CAVOK TX16/2512Z TN02/2505Z BECMG 2418/2420 15008KT BECMG 2509/2511 32005KT 9999 FEW060 SCT300 =

Fliegen lernen

Die Fliegerschule der WMW...

Termine & Events

Alle Termine anzeigen...

Mietwagen

am Flugplatz Wels 
Toyota Aygo 1.0 VVTi 5tg.

1/2 Tag      25,- Euro
1 Tag   50,- Euro
Wochenende   100,- Euro

Weitere Infos...

+++ Aktuelle Spritpreise (24.04.2017): | Jet A-1 € 1,340 | Super Plus 98 ETBE € 1,418 | Avgas 100LL € 1,992 | +++